createdAt,value
2022-08-12T00:00:00.000Z,4.24
2022-08-12T00:15:00.000Z,4.4
2022-08-12T00:30:00.000Z,4.36
2022-08-12T00:45:00.000Z,5.42
2022-08-12T01:00:00.000Z,5.02
2022-08-12T01:15:00.000Z,5.14
2022-08-12T01:30:00.000Z,4.99
2022-08-12T01:45:00.000Z,5.15
2022-08-12T02:00:00.000Z,5.73
2022-08-12T02:15:00.000Z,5.6
2022-08-12T02:30:00.000Z,6.04
2022-08-12T02:45:00.000Z,6.65
2022-08-12T03:00:00.000Z,6.71
2022-08-12T03:15:00.000Z,6.24
2022-08-12T03:30:00.000Z,7.54
2022-08-12T03:45:00.000Z,8.25
2022-08-12T04:00:00.000Z,7.36
2022-08-12T04:15:00.000Z,7.76
2022-08-12T04:30:00.000Z,7.94
2022-08-12T04:45:00.000Z,9.84
2022-08-12T05:00:00.000Z,8.35
2022-08-12T05:15:00.000Z,7.53
2022-08-12T05:30:00.000Z,7.55
2022-08-12T05:45:00.000Z,6.47
2022-08-12T06:00:00.000Z,6.79
2022-08-12T06:15:00.000Z,6.82
2022-08-12T06:30:00.000Z,7.36
2022-08-12T06:45:00.000Z,6.73
2022-08-12T07:00:00.000Z,5.49
2022-08-12T07:15:00.000Z,5.46
2022-08-12T07:30:00.000Z,5.15
2022-08-12T07:45:00.000Z,4.41
2022-08-12T08:00:00.000Z,3.49
2022-08-12T08:15:00.000Z,3.29
2022-08-12T08:30:00.000Z,3.26
2022-08-12T08:45:00.000Z,3.12
2022-08-12T09:15:00.000Z,3.12
2022-08-12T09:30:00.000Z,2.8
2022-08-12T09:45:00.000Z,3.05
2022-08-12T10:00:00.000Z,2.55
2022-08-12T10:15:00.000Z,2
2022-08-12T10:30:00.000Z,2.26
2022-08-12T10:45:00.000Z,2.38
2022-08-12T11:00:00.000Z,1.99
2022-08-12T11:15:00.000Z,2.14
2022-08-12T11:30:00.000Z,1.74
2022-08-12T12:00:00.000Z,1.89
2022-08-12T12:15:00.000Z,2.89
2022-08-12T12:30:00.000Z,2
2022-08-12T12:45:00.000Z,1.85
2022-08-12T13:00:00.000Z,2.26
2022-08-12T13:15:00.000Z,1.85
2022-08-12T13:30:00.000Z,1.74
2022-08-12T13:45:00.000Z,1.76
2022-08-12T14:00:00.000Z,2.21
2022-08-12T14:15:00.000Z,2.05
2022-08-12T14:30:00.000Z,2.04
2022-08-12T14:45:00.000Z,1.53
2022-08-12T15:00:00.000Z,1.48
2022-08-12T15:15:00.000Z,1.32
2022-08-12T15:30:00.000Z,1.27
2022-08-12T15:45:00.000Z,1.26
2022-08-12T16:00:00.000Z,1.27
2022-08-12T16:15:00.000Z,1.33
2022-08-12T16:30:00.000Z,1.49
2022-08-12T16:45:00.000Z,1.54
2022-08-12T17:00:00.000Z,2.38
2022-08-12T17:15:00.000Z,1.62
2022-08-12T17:30:00.000Z,1.81
2022-08-12T17:45:00.000Z,1.79
2022-08-12T18:00:00.000Z,1.89
2022-08-12T18:15:00.000Z,2.07
2022-08-12T18:30:00.000Z,2.4
2022-08-12T18:45:00.000Z,2.56
2022-08-12T19:00:00.000Z,2.55
2022-08-12T19:15:00.000Z,2.73
2022-08-12T19:30:00.000Z,3.41
2022-08-12T19:45:00.000Z,3.68
2022-08-12T20:00:00.000Z,2.41
2022-08-12T20:15:00.000Z,2.12
2022-08-12T20:30:00.000Z,2.93
2022-08-12T20:45:00.000Z,3.21
2022-08-12T21:00:00.000Z,3.22
2022-08-12T21:15:00.000Z,2.87
2022-08-12T21:30:00.000Z,3.05
2022-08-12T21:45:00.000Z,3.12
2022-08-12T22:00:00.000Z,3.16
2022-08-12T22:15:00.000Z,2.91
2022-08-12T22:30:00.000Z,3.06
2022-08-12T22:45:00.000Z,3.13
2022-08-12T23:00:00.000Z,3.07
2022-08-12T23:15:00.000Z,3.34
2022-08-12T23:30:00.000Z,3.19
2022-08-12T23:45:00.000Z,3.22
